Welcome to Northern Hawkes Bay. New Zealand.
PWS Header
      nz Flag



Hit Counter


W3C Valid W3C Valid logo


    Wairoa

Select any of the Stations below to visit their websites.










Historic Data from Weather Underground
Select the location of interest below. Wairoa is the default. Please have patience, this Data is slow to load in.
Northern Hawkes Bay Historical Data
Daily Summary for September 23, 2017 Units:  Metric    English   Both
« Previous Day
Next Day »
Daily Weekly Monthly Yearly Custom
  High: Low: Average:
Temperature: 18.6 °C 9.5 °C 13.3 °C
Dew Point: 13.6 °C 8.2 °C 10.7 °C
Humidity: 99% 58% 85%
Wind Speed: 18.3km/h 0.0km/h 4.6km/h
Wind Gust: 29.4km/h - -
Wind- - South
Pressure: 1014.8 hPa 1009.0 hPa -
Precipitation: 1.0 mm    
Historical Graphs
 
 
Tabular Data for September 23, 2017
Time Temperature Dew Point Pressure Wind Wind Speed Wind Gust Humidity Rainfall Rate (Hourly) solar
00:02 9.8 °C 9.7 °C 1009.0 hPa Calm   3.5 km/h 99% 0.0 mm 0 W/m2
00:06 9.8 °C 9.7 °C 1009.0 hPa Calm   2.6 km/h 99% 0.0 mm 0 W/m2
00:11 9.8 °C 9.7 °C 1009.0 hPa Calm     99% 0.0 mm 0 W/m2
00:16 9.9 °C 9.8 °C 1009.4 hPa Calm   2.6 km/h 99% 0.0 mm 0 W/m2
00:22 10.1 °C 9.9 °C 1009.4 hPa West 1.1 km/h 3.5 km/h 99% 0.0 mm 0 W/m2
00:26 10.2 °C 10.1 °C 1009.4 hPa Calm   3.5 km/h 99% 0.0 mm 0 W/m2
00:32 10.3 °C 10.2 °C 1009.4 hPa WSW 1.1 km/h 3.5 km/h 99% 0.0 mm 0 W/m2
00:37 10.6 °C 10.4 °C 1009.4 hPa SW 7.2 km/h 12.2 km/h 99% 0.0 mm 0 W/m2
00:42 10.8 °C 10.7 °C 1009.4 hPa SW 5.0 km/h 12.2 km/h 99% 0.3 mm 0 W/m2
00:47 10.8 °C 10.7 °C 1009.4 hPa SW 6.1 km/h 12.2 km/h 99% 0.3 mm 0 W/m2
00:53 11.0 °C 10.7 °C 1009.4 hPa SW 3.5 km/h 12.2 km/h 98% 0.3 mm 0 W/m2
00:57 10.8 °C 10.7 °C 1009.7 hPa WSW 7.2 km/h 9.7 km/h 99% 0.3 mm 0 W/m2
01:02 11.0 °C 10.7 °C 1009.7 hPa WSW 11.1 km/h 13.4 km/h 98% 0.3 mm 0 W/m2
01:08 11.2 °C 10.9 °C 1009.4 hPa WSW 7.2 km/h 13.4 km/h 98% 0.3 mm 0 W/m2
01:13 11.2 °C 10.9 °C 1009.4 hPa SW 6.1 km/h 13.4 km/h 98% 0.3 mm 0 W/m2
01:18 11.3 °C 11.0 °C 1009.7 hPa SW 7.2 km/h 11.1 km/h 98% 0.3 mm 0 W/m2
01:22 11.4 °C 11.1 °C 1009.7 hPa SW 8.7 km/h 12.2 km/h 98% 0.5 mm 0 W/m2
01:27 11.4 °C 11.1 °C 1009.7 hPa SW 8.7 km/h 13.4 km/h 98% 0.5 mm 0 W/m2
01:32 11.6 °C 11.3 °C 1009.4 hPa SW 8.7 km/h 14.8 km/h 98% 0.5 mm 0 W/m2
01:38 11.6 °C 11.3 °C 1009.4 hPa SSW 6.1 km/h 14.8 km/h 98% 0.3 mm 0 W/m2
01:43 11.6 °C 11.3 °C 1009.4 hPa SSE 7.2 km/h 13.4 km/h 98% 0.3 mm 0 W/m2
01:47 11.6 °C 11.3 °C 1009.7 hPa SE 3.5 km/h 17.2 km/h 98% 0.3 mm 0 W/m2
01:53 11.7 °C 11.4 °C 1009.7 hPa SE 2.6 km/h 17.2 km/h 98% 0.3 mm 0 W/m2
01:57 11.8 °C 11.5 °C 1009.7 hPa SE 3.5 km/h 13.4 km/h 98% 0.3 mm 0 W/m2
02:02 11.8 °C 11.5 °C 1009.7 hPa SE 5.0 km/h 17.2 km/h 98% 0.3 mm 0 W/m2
02:08 11.8 °C 11.5 °C 1009.7 hPa SE 8.7 km/h 17.2 km/h 98% 0.3 mm 0 W/m2
02:12 11.9 °C 11.6 °C 1009.7 hPa SSE 6.1 km/h 15.8 km/h 98% 0.3 mm 0 W/m2
02:17 12.0 °C 11.6 °C 1009.7 hPa SSE 5.0 km/h 14.8 km/h 97% 0.3 mm 0 W/m2
02:22 12.1 °C 11.7 °C 1009.7 hPa SSE 2.6 km/h 14.8 km/h 97% 0.0 mm 0 W/m2
02:27 12.1 °C 11.7 °C 1009.4 hPa SSE 8.7 km/h 18.3 km/h 97% 0.0 mm 0 W/m2
02:32 12.0 °C 11.6 °C 1009.7 hPa SSE 3.5 km/h 19.5 km/h 97% 0.0 mm 0 W/m2
02:37 11.9 °C 11.6 °C 1009.7 hPa SSE 6.1 km/h 19.5 km/h 98% 0.0 mm 0 W/m2
02:42 11.8 °C 11.5 °C 1009.7 hPa SSE 3.5 km/h 18.3 km/h 98% 0.0 mm 0 W/m2
02:47 11.8 °C 11.5 °C 1009.7 hPa SSE 2.6 km/h 12.2 km/h 98% 0.0 mm 0 W/m2
02:52 11.8 °C 11.5 °C 1009.7 hPa SE 7.2 km/h 15.8 km/h 98% 0.0 mm 0 W/m2
02:58 12.0 °C 11.6 °C 1009.7 hPa SE 11.1 km/h 15.8 km/h 97% 0.0 mm 0 W/m2
03:02 12.1 °C 11.7 °C 1009.7 hPa SSE 9.7 km/h 18.3 km/h 97% 0.0 mm 0 W/m2
03:07 12.3 °C 11.8 °C 1010.0 hPa SSE 9.7 km/h 18.3 km/h 97% 0.0 mm 0 W/m2
03:12 12.2 °C 11.7 °C 1010.0 hPa SSE 13.4 km/h 18.3 km/h 97% 0.0 mm 0 W/m2
03:17 12.0 °C 11.6 °C 1010.0 hPa SSE 7.2 km/h 17.2 km/h 97% 0.0 mm 0 W/m2
03:22 11.9 °C 11.6 °C 1010.0 hPa SSE 8.7 km/h 18.3 km/h 98% 0.0 mm 0 W/m2
03:27 11.8 °C 11.5 °C 1010.0 hPa South 7.2 km/h 29.4 km/h 98% 0.0 mm 0 W/m2
03:32 11.8 °C 11.5 °C 1010.0 hPa South 6.1 km/h 29.4 km/h 98% 0.0 mm 0 W/m2
03:37 11.8 °C 11.5 °C 1010.0 hPa South 5.0 km/h 20.9 km/h 98% 0.0 mm 0 W/m2
03:42 11.8 °C 11.5 °C 1010.0 hPa SSE 8.7 km/h 20.9 km/h 98% 0.0 mm 0 W/m2
03:47 11.8 °C 11.5 °C 1010.4 hPa SSE 7.2 km/h 17.2 km/h 98% 0.0 mm 0 W/m2
03:53 11.8 °C 11.5 °C 1010.4 hPa SSE 5.0 km/h 17.2 km/h 98% 0.0 mm 0 W/m2
03:57 11.9 °C 11.6 °C 1010.7 hPa SE 3.5 km/h 14.8 km/h 98% 0.0 mm 0 W/m2
04:02 11.9 °C 11.6 °C 1010.4 hPa SE 3.5 km/h 12.2 km/h 98% 0.0 mm 0 W/m2
04:07 11.9 °C 11.6 °C 1010.4 hPa ESE 5.0 km/h 11.1 km/h 98% 0.0 mm 0 W/m2
04:12 11.9 °C 11.6 °C 1010.4 hPa SE 7.2 km/h 11.1 km/h 98% 0.0 mm 0 W/m2
04:17 12.0 °C 11.6 °C 1010.7 hPa SSE 8.7 km/h 15.8 km/h 97% 0.0 mm 0 W/m2
04:20 11.9 °C 11.6 °C 1010.7 hPa SSE 2.6 km/h 15.8 km/h 98% 0.0 mm 0 W/m2
04:25 11.8 °C 11.5 °C 1010.7 hPa SSE 3.5 km/h 15.8 km/h 98% 0.0 mm 0 W/m2
04:30 11.7 °C 11.2 °C 1010.7 hPa SE 6.1 km/h 9.7 km/h 97% 0.0 mm 0 W/m2
04:35 11.8 °C 11.3 °C 1010.7 hPa South 6.1 km/h 12.2 km/h 97% 0.0 mm 0 W/m2
04:40 12.0 °C 11.2 °C 1010.7 hPa South 6.1 km/h 15.8 km/h 95% 0.0 mm 0 W/m2
04:45 12.1 °C 11.2 °C 1010.7 hPa SSE 9.7 km/h 17.2 km/h 94% 0.0 mm 0 W/m2
04:50 12.2 °C 11.3 °C 1011.1 hPa South 9.7 km/h 17.2 km/h 94% 0.0 mm 0 W/m2
04:55 12.1 °C 11.2 °C 1011.1 hPa South 5.0 km/h 14.8 km/h 94% 0.0 mm 0 W/m2
05:00 11.9 °C 10.9 °C 1010.7 hPa South 3.5 km/h 13.4 km/h 94% 0.0 mm 0 W/m2
05:05 11.9 °C 10.9 °C 1011.1 hPa South 3.5 km/h 11.1 km/h 94% 0.0 mm 0 W/m2
05:10 11.9 °C 10.9 °C 1010.7 hPa South 3.5 km/h 9.7 km/h 94% 0.0 mm 0 W/m2
05:15 11.9 °C 10.9 °C 1011.1 hPa South 5.0 km/h 9.7 km/h 94% 0.0 mm 0 W/m2
05:20 11.9 °C 10.8 °C 1011.1 hPa SSW 3.5 km/h 9.7 km/h 93% 0.0 mm 0 W/m2
05:25 12.0 °C 10.9 °C 1011.1 hPa SSW 3.5 km/h 8.7 km/h 93% 0.0 mm 0 W/m2
05:30 12.0 °C 10.9 °C 1011.1 hPa South 5.0 km/h 12.2 km/h 93% 0.0 mm 0 W/m2
05:35 12.1 °C 11.0 °C 1011.4 hPa South 2.6 km/h 12.2 km/h 93% 0.0 mm 0 W/m2
05:40 12.2 °C 11.1 °C 1011.4 hPa South 11.1 km/h 14.8 km/h 93% 0.0 mm 0 W/m2
05:45 12.3 °C 11.2 °C 1011.4 hPa South 7.2 km/h 14.8 km/h 93% 0.0 mm 0 W/m2
05:50 12.2 °C 10.9 °C 1011.4 hPa South 5.0 km/h 14.8 km/h 92% 0.0 mm 0 W/m2
05:55 12.3 °C 11.1 °C 1011.7 hPa South 6.1 km/h 14.8 km/h 92% 0.0 mm 0 W/m2
06:00 12.3 °C 11.2 °C 1011.7 hPa South 8.7 km/h 11.1 km/h 93% 0.0 mm 0 W/m2
06:05 12.3 °C 11.2 °C 1011.7 hPa South 5.0 km/h 11.1 km/h 93% 0.0 mm 0 W/m2
06:10 12.2 °C 11.1 °C 1011.7 hPa SSE 8.7 km/h 12.2 km/h 93% 0.0 mm 2 W/m2
06:13 12.2 °C 11.1 °C 1011.7 hPa SSE 6.1 km/h 14.8 km/h 93% 0.0 mm 4 W/m2
06:23 12.0 °C 10.9 °C 1012.1 hPa SSE 7.2 km/h 19.5 km/h 93% 0.0 mm 7 W/m2
06:28 11.9 °C 10.9 °C 1012.1 hPa SE 8.7 km/h 19.5 km/h 94% 0.0 mm 9 W/m2
06:33 11.8 °C 11.1 °C 1012.1 hPa SE 8.7 km/h 14.8 km/h 95% 0.0 mm 13 W/m2
06:38 11.6 °C 11.0 °C 1012.1 hPa SE 3.5 km/h 17.2 km/h 96% 0.0 mm 17 W/m2
06:43 11.5 °C 10.9 °C 1012.4 hPa ESE 5.0 km/h 17.2 km/h 96% 0.0 mm 19 W/m2
06:48 11.4 °C 10.9 °C 1012.4 hPa ESE 3.5 km/h 11.1 km/h 97% 0.0 mm 21 W/m2
06:53 11.3 °C 10.8 °C 1012.4 hPa ESE 2.6 km/h 11.1 km/h 97% 0.0 mm 27 W/m2
06:58 11.2 °C 10.7 °C 1012.4 hPa ESE 3.5 km/h 8.7 km/h 97% 0.0 mm 38 W/m2
07:03 11.2 °C 10.7 °C 1012.4 hPa Calm   8.7 km/h 97% 0.0 mm 49 W/m2
07:08 11.4 °C 11.1 °C 1012.4 hPa Calm   8.7 km/h 98% 0.0 mm 54 W/m2
07:13 11.6 °C 11.3 °C 1012.8 hPa Calm   1.1 km/h 98% 0.0 mm 50 W/m2
07:18 11.8 °C 11.5 °C 1012.8 hPa SSW 2.6 km/h 3.5 km/h 98% 0.0 mm 39 W/m2
07:23 11.8 °C 11.3 °C 1012.8 hPa Calm   3.5 km/h 97% 0.0 mm 46 W/m2
07:28 11.7 °C 11.1 °C 1012.8 hPa Calm   3.5 km/h 96% 0.0 mm 43 W/m2
07:33 11.7 °C 11.1 °C 1012.8 hPa Calm   2.6 km/h 96% 0.0 mm 46 W/m2
07:38 11.7 °C 11.1 °C 1012.8 hPa Calm     96% 0.0 mm 79 W/m2
07:43 11.8 °C 11.2 °C 1012.8 hPa Calm     96% 0.0 mm 99 W/m2
07:48 12.0 °C 11.4 °C 1012.8 hPa Calm   2.6 km/h 96% 0.0 mm 90 W/m2
07:53 12.0 °C 11.4 °C 1012.8 hPa Calm   3.5 km/h 96% 0.0 mm 75 W/m2
07:58 12.0 °C 11.4 °C 1013.1 hPa NW 2.6 km/h 3.5 km/h 96% 0.0 mm 106 W/m2
08:03 12.1 °C 11.3 °C 1013.1 hPa NW 3.5 km/h 6.1 km/h 95% 0.0 mm 159 W/m2
08:08 12.3 °C 11.5 °C 1013.1 hPa NW 3.5 km/h 7.2 km/h 95% 0.0 mm 120 W/m2
08:13 12.4 °C 11.6 °C 1013.1 hPa NW 5.0 km/h 7.2 km/h 95% 0.0 mm 128 W/m2
08:18 12.4 °C 11.6 °C 1013.1 hPa NW 5.0 km/h 7.2 km/h 95% 0.0 mm 133 W/m2
08:23 12.4 °C 11.6 °C 1013.1 hPa NW 3.5 km/h 7.2 km/h 95% 0.0 mm 131 W/m2
08:28 12.8 °C 12.0 °C 1013.1 hPa NW 3.5 km/h 7.2 km/h 95% 0.0 mm 278 W/m2
08:33 13.5 °C 12.7 °C 1013.4 hPa NW 2.6 km/h 6.1 km/h 95% 0.3 mm 303 W/m2
08:38 13.9 °C 12.4 °C 1013.4 hPa NNW 5.0 km/h 7.2 km/h 91% 0.3 mm 304 W/m2
08:43 14.4 °C 12.6 °C 1013.4 hPa North 1.1 km/h 7.2 km/h 89% 0.3 mm 298 W/m2
08:48 15.5 °C 13.2 °C 1013.8 hPa North 1.1 km/h 6.1 km/h 86% 0.3 mm 330 W/m2
08:53 16.5 °C 13.6 °C 1013.8 hPa NNE 1.1 km/h 5.0 km/h 83% 0.3 mm 340 W/m2
08:58 16.7 °C 12.4 °C 1013.8 hPa SSW 3.5 km/h 9.7 km/h 76% 0.3 mm 358 W/m2
09:03 16.5 °C 11.8 °C 1014.1 hPa SSW 7.2 km/h 9.7 km/h 74% 0.3 mm 344 W/m2
09:08 15.8 °C 12.0 °C 1014.1 hPa SW 9.7 km/h 12.2 km/h 78% 0.3 mm 339 W/m2
09:13 15.1 °C 11.9 °C 1014.1 hPa SW 8.7 km/h 13.4 km/h 81% 0.3 mm 328 W/m2
09:18 14.8 °C 12.1 °C 1014.1 hPa SW 7.2 km/h 13.4 km/h 84% 0.3 mm 347 W/m2
09:23 15.1 °C 12.4 °C 1014.1 hPa SW 7.2 km/h 12.2 km/h 84% 0.3 mm 351 W/m2
09:28 15.3 °C 12.4 °C 1014.1 hPa SW 5.0 km/h 12.2 km/h 83% 0.3 mm 358 W/m2
09:33 15.3 °C 12.3 °C 1014.1 hPa SW 7.2 km/h 13.4 km/h 82% 0.0 mm 362 W/m2
09:38 15.0 °C 12.2 °C 1014.4 hPa SW 9.7 km/h 15.8 km/h 83% 0.0 mm 366 W/m2
09:43 14.9 °C 12.2 °C 1014.4 hPa SW 12.2 km/h 18.3 km/h 84% 0.0 mm 373 W/m2
09:48 14.6 °C 11.9 °C 1014.4 hPa SW 12.2 km/h 18.3 km/h 84% 0.0 mm 382 W/m2
09:53 14.6 °C 12.1 °C 1014.4 hPa SW 7.2 km/h 19.5 km/h 85% 0.0 mm 381 W/m2
10:00 14.9 °C 12.4 °C 1014.4 hPa SW 14.8 km/h 19.5 km/h 85% 0.0 mm 389 W/m2
10:05 14.6 °C 12.1 °C 1014.8 hPa WSW 13.4 km/h 21.9 km/h 85% 0.0 mm 380 W/m2
10:10 14.5 °C 11.8 °C 1014.4 hPa WSW 12.2 km/h 23.3 km/h 84% 0.0 mm 388 W/m2
10:15 14.5 °C 11.8 °C 1014.4 hPa SW 14.8 km/h 23.3 km/h 84% 0.0 mm 363 W/m2
10:20 15.0 °C 12.5 °C 1014.4 hPa SW 13.4 km/h 20.9 km/h 85% 0.0 mm 300 W/m2
10:25 15.2 °C 12.7 °C 1014.4 hPa SW 13.4 km/h 19.5 km/h 85% 0.0 mm 447 W/m2
10:30 15.0 °C 12.3 °C 1014.4 hPa SSW 11.1 km/h 20.9 km/h 84% 0.0 mm 297 W/m2
10:35 14.7 °C 12.4 °C 1014.4 hPa SW 12.2 km/h 20.9 km/h 86% 0.0 mm 407 W/m2
10:51 15.0 °C 12.5 °C 1014.4 hPa SSW 12.2 km/h 19.5 km/h 85% 0.0 mm 606 W/m2
10:56 15.2 °C 12.5 °C 1014.4 hPa SW 18.3 km/h 21.9 km/h 84% 0.0 mm 509 W/m2
11:01 14.3 °C 11.8 °C 1014.4 hPa SW 11.1 km/h 21.9 km/h 85% 0.0 mm 510 W/m2
11:06 14.6 °C 12.4 °C 1014.4 hPa SW 13.4 km/h 21.9 km/h 87% 0.0 mm 509 W/m2
11:11 14.8 °C 12.3 °C 1014.4 hPa SW 11.1 km/h 19.5 km/h 85% 0.0 mm 553 W/m2
11:16 14.9 °C 12.2 °C 1014.4 hPa SSW 11.1 km/h 19.5 km/h 84% 0.0 mm 525 W/m2
11:21 15.0 °C 12.2 °C 1014.4 hPa SSW 7.2 km/h 19.5 km/h 83% 0.0 mm 532 W/m2
11:26 14.9 °C 12.2 °C 1014.1 hPa SSW 7.2 km/h 18.3 km/h 84% 0.0 mm 541 W/m2
11:31 15.0 °C 11.9 °C 1014.1 hPa SSW 11.1 km/h 18.3 km/h 82% 0.0 mm 540 W/m2
11:36 15.2 °C 12.3 °C 1014.4 hPa SW 7.2 km/h 18.3 km/h 83% 0.0 mm 549 W/m2
11:41 15.2 °C 12.3 °C 1014.1 hPa SSW 8.7 km/h 17.2 km/h 83% 0.0 mm 554 W/m2
11:46 15.2 °C 11.8 °C 1014.1 hPa SSW 6.1 km/h 15.8 km/h 80% 0.0 mm 557 W/m2
11:51 15.5 °C 12.3 °C 1014.1 hPa SW 9.7 km/h 15.8 km/h 81% 0.0 mm 571 W/m2
11:56 15.2 °C 11.9 °C 1014.1 hPa SW 13.4 km/h 17.2 km/h 81% 0.0 mm 590 W/m2
12:01 15.1 °C 11.9 °C 1014.1 hPa SW 12.2 km/h 17.2 km/h 81% 0.0 mm 560 W/m2
12:06 15.3 °C 12.3 °C 1014.1 hPa SW 7.2 km/h 17.2 km/h 82% 0.0 mm 600 W/m2
12:11 15.5 °C 12.3 °C 1013.8 hPa SSW 12.2 km/h 15.8 km/h 81% 0.0 mm 583 W/m2
12:16 15.7 °C 12.1 °C 1013.8 hPa SSW 9.7 km/h 15.8 km/h 79% 0.0 mm 591 W/m2
12:21 15.9 °C 11.7 °C 1014.1 hPa SSW 8.7 km/h 15.8 km/h 76% 0.0 mm 516 W/m2
12:26 15.8 °C 11.8 °C 1014.1 hPa SSW 9.7 km/h 15.8 km/h 77% 0.0 mm 235 W/m2
12:31 15.3 °C 11.5 °C 1013.8 hPa SSW 5.0 km/h 15.8 km/h 78% 0.0 mm 570 W/m2
12:36 16.1 °C 11.9 °C 1014.1 hPa SSW 7.2 km/h 15.8 km/h 76% 0.0 mm 609 W/m2
12:41 16.2 °C 11.8 °C 1013.8 hPa South 6.1 km/h 13.4 km/h 75% 0.0 mm 103 W/m2
12:46 15.4 °C 11.2 °C 1013.8 hPa South 8.7 km/h 13.4 km/h 76% 0.0 mm 145 W/m2
12:51 15.1 °C 11.1 °C 1013.8 hPa South 9.7 km/h 12.2 km/h 77% 0.0 mm 548 W/m2
12:56 15.8 °C 11.6 °C 1013.4 hPa South 6.1 km/h 12.2 km/h 76% 0.0 mm 377 W/m2
13:01 16.2 °C 11.8 °C 1013.4 hPa South 8.7 km/h 12.2 km/h 75% 0.0 mm 279 W/m2
13:06 16.3 °C 11.7 °C 1013.4 hPa South 6.1 km/h 12.2 km/h 74% 0.0 mm 328 W/m2
13:11 16.6 °C 11.9 °C 1013.4 hPa South 7.2 km/h 12.2 km/h 74% 0.0 mm 554 W/m2
13:16 16.8 °C 11.5 °C 1013.4 hPa SSE 5.0 km/h 14.8 km/h 71% 0.0 mm 145 W/m2
13:21 17.1 °C 11.2 °C 1013.4 hPa SSE 2.6 km/h 14.8 km/h 68% 0.0 mm 546 W/m2
13:26 17.0 °C 11.3 °C 1013.4 hPa South 6.1 km/h 12.2 km/h 69% 0.0 mm 542 W/m2
13:31 17.1 °C 11.6 °C 1013.4 hPa South 8.7 km/h 11.1 km/h 70% 0.0 mm 374 W/m2
13:36 16.6 °C 11.3 °C 1013.1 hPa South 7.2 km/h 12.2 km/h 71% 0.0 mm 440 W/m2
13:41 16.6 °C 11.6 °C 1013.1 hPa South 3.5 km/h 12.2 km/h 72% 0.0 mm 519 W/m2
13:46 17.1 °C 12.0 °C 1013.1 hPa SSE 7.2 km/h 12.2 km/h 72% 0.0 mm 507 W/m2
13:51 17.3 °C 12.0 °C 1013.1 hPa SSE 5.0 km/h 12.2 km/h 71% 0.0 mm 478 W/m2
13:56 17.4 °C 11.9 °C 1013.1 hPa SSE 5.0 km/h 11.1 km/h 70% 0.0 mm 442 W/m2
14:01 17.8 °C 11.6 °C 1013.1 hPa SSE 5.0 km/h 9.7 km/h 67% 0.0 mm 144 W/m2
14:06 17.8 °C 11.4 °C 1013.1 hPa SE 3.5 km/h 8.7 km/h 66% 0.0 mm 71 W/m2
14:11 17.9 °C 11.0 °C 1013.1 hPa SE 2.6 km/h 8.7 km/h 64% 0.0 mm 68 W/m2
14:16 17.7 °C 11.1 °C 1012.8 hPa SSE 5.0 km/h 11.1 km/h 65% 0.0 mm 67 W/m2
14:21 18.0 °C 11.6 °C 1013.1 hPa SSE 5.0 km/h 11.1 km/h 66% 0.0 mm 68 W/m2
14:26 17.6 °C 10.7 °C 1012.8 hPa SSE 5.0 km/h 11.1 km/h 64% 0.0 mm 69 W/m2
14:31 18.0 °C 11.3 °C 1012.8 hPa South 3.5 km/h 11.1 km/h 65% 0.0 mm 70 W/m2
14:36 18.1 °C 11.2 °C 1012.8 hPa SSE 2.6 km/h 8.7 km/h 64% 0.0 mm 111 W/m2
14:41 18.3 °C 11.4 °C 1012.8 hPa SE 8.7 km/h 11.1 km/h 64% 0.0 mm 262 W/m2
14:46 17.7 °C 10.6 °C 1012.8 hPa SE 5.0 km/h 11.1 km/h 63% 0.0 mm 374 W/m2
14:51 17.7 °C 10.8 °C 1012.4 hPa SE 7.2 km/h 12.2 km/h 64% 0.0 mm 365 W/m2
14:56 17.6 °C 10.7 °C 1012.4 hPa SE 5.0 km/h 13.4 km/h 64% 0.0 mm 266 W/m2
15:01 17.6 °C 10.2 °C 1012.4 hPa SE 8.7 km/h 13.4 km/h 62% 0.0 mm 232 W/m2
15:06 17.5 °C 10.4 °C 1012.4 hPa SE 2.6 km/h 13.4 km/h 63% 0.0 mm 355 W/m2
15:11 17.8 °C 10.2 °C 1012.8 hPa SE 3.5 km/h 11.1 km/h 61% 0.0 mm 345 W/m2
15:16 17.8 °C 10.2 °C 1012.8 hPa SE 8.7 km/h 11.1 km/h 61% 0.0 mm 336 W/m2
15:21 17.6 °C 10.2 °C 1012.8 hPa SSE 2.6 km/h 13.4 km/h 62% 0.0 mm 322 W/m2
15:26 17.8 °C 10.7 °C 1012.8 hPa SSE 3.5 km/h 13.4 km/h 63% 0.0 mm 310 W/m2
15:31 17.8 °C 10.2 °C 1012.8 hPa SSE 6.1 km/h 11.1 km/h 61% 0.0 mm 297 W/m2
15:36 17.9 °C 10.3 °C 1012.8 hPa SE 5.0 km/h 11.1 km/h 61% 0.0 mm 283 W/m2
15:41 18.6 °C 10.4 °C 1012.8 hPa SE 5.0 km/h 9.7 km/h 59% 0.0 mm 274 W/m2
15:46 18.4 °C 10.0 °C 1012.8 hPa SE 1.1 km/h 9.7 km/h 58% 0.0 mm 264 W/m2
15:51 18.3 °C 10.4 °C 1012.8 hPa SE 2.6 km/h 11.1 km/h 60% 0.0 mm 216 W/m2
15:56 17.5 °C 9.9 °C 1012.8 hPa SE 1.1 km/h 11.1 km/h 61% 0.0 mm 134 W/m2
16:01 16.9 °C 9.8 °C 1012.8 hPa SE 3.5 km/h 8.7 km/h 63% 0.0 mm 108 W/m2
16:06 16.1 °C 9.3 °C 1012.8 hPa SE 3.5 km/h 8.7 km/h 64% 0.0 mm 111 W/m2
16:11 15.6 °C 9.5 °C 1012.8 hPa SE 3.5 km/h 8.7 km/h 67% 0.0 mm 100 W/m2
16:16 15.3 °C 9.4 °C 1012.8 hPa SE 3.5 km/h 8.7 km/h 68% 0.0 mm 97 W/m2
16:21 15.1 °C 9.9 °C 1012.8 hPa SE 3.5 km/h 8.7 km/h 71% 0.0 mm 104 W/m2
16:26 15.1 °C 10.1 °C 1012.8 hPa SSE 3.5 km/h 8.7 km/h 72% 0.0 mm 86 W/m2
16:31 15.0 °C 10.0 °C 1012.8 hPa SE 3.5 km/h 7.2 km/h 72% 0.0 mm 76 W/m2
16:36 14.8 °C 9.8 °C 1012.4 hPa ESE 3.5 km/h 7.2 km/h 72% 0.0 mm 74 W/m2
16:41 14.8 °C 9.6 °C 1012.4 hPa ESE 2.6 km/h 7.2 km/h 71% 0.0 mm 81 W/m2
16:46 14.8 °C 9.6 °C 1012.4 hPa ESE 1.1 km/h 7.2 km/h 71% 0.0 mm 92 W/m2
16:51 15.1 °C 9.7 °C 1012.4 hPa East 3.5 km/h 6.1 km/h 70% 0.0 mm 128 W/m2
16:56 16.8 °C 10.9 °C 1012.8 hPa East 1.1 km/h 6.1 km/h 68% 0.0 mm 94 W/m2
17:01 17.5 °C 10.2 °C 1012.8 hPa ESE 1.1 km/h 6.1 km/h 62% 0.0 mm 75 W/m2
17:06 17.1 °C 9.5 °C 1012.8 hPa ESE 5.0 km/h 7.2 km/h 61% 0.0 mm 41 W/m2
17:11 15.9 °C 8.6 °C 1012.4 hPa East 2.6 km/h 8.7 km/h 62% 0.0 mm 43 W/m2
17:16 15.8 °C 9.0 °C 1012.4 hPa East 3.5 km/h 8.7 km/h 64% 0.0 mm 40 W/m2
17:21 15.8 °C 8.8 °C 1012.4 hPa East 3.5 km/h 8.7 km/h 63% 0.0 mm 32 W/m2
17:26 15.7 °C 8.4 °C 1012.4 hPa East 1.1 km/h 8.7 km/h 62% 0.0 mm 27 W/m2
17:31 15.5 °C 8.5 °C 1012.4 hPa Calm   7.2 km/h 63% 0.0 mm 22 W/m2
17:36 15.3 °C 8.6 °C 1012.4 hPa Calm   5.0 km/h 64% 0.0 mm 17 W/m2
17:41 14.8 °C 8.5 °C 1012.8 hPa Calm   5.0 km/h 66% 0.0 mm 12 W/m2
17:46 14.4 °C 8.6 °C 1012.8 hPa Calm   3.5 km/h 68% 0.0 mm 9 W/m2
17:51 14.0 °C 8.4 °C 1012.8 hPa Calm   3.5 km/h 69% 0.0 mm 6 W/m2
17:56 13.6 °C 9.1 °C 1012.8 hPa SW 1.1 km/h 3.5 km/h 74% 0.0 mm 4 W/m2
18:01 13.5 °C 9.2 °C 1012.8 hPa Calm   3.5 km/h 75% 0.0 mm 1 W/m2
18:06 13.4 °C 9.3 °C 1012.8 hPa Calm   3.5 km/h 76% 0.0 mm 0 W/m2
18:12 13.2 °C 9.1 °C 1012.8 hPa South 3.5 km/h 5.0 km/h 76% 0.0 mm 0 W/m2
18:17 13.1 °C 8.8 °C 1013.1 hPa South 1.1 km/h 5.0 km/h 75% 0.0 mm 0 W/m2
18:22 13.0 °C 8.7 °C 1013.1 hPa South 1.1 km/h 5.0 km/h 75% 0.0 mm 0 W/m2
18:27 13.0 °C 8.9 °C 1013.1 hPa Calm   3.5 km/h 76% 0.0 mm 0 W/m2
18:32 12.9 °C 8.6 °C 1013.1 hPa Calm   3.5 km/h 75% 0.0 mm 0 W/m2
18:37 12.8 °C 8.5 °C 1013.1 hPa Calm   2.6 km/h 75% 0.0 mm 0 W/m2
18:42 12.7 °C 8.2 °C 1013.4 hPa Calm   1.1 km/h 74% 0.0 mm 0 W/m2
18:47 12.7 °C 8.4 °C 1013.1 hPa Calm   2.6 km/h 75% 0.0 mm 0 W/m2
18:53 12.6 °C 8.3 °C 1013.1 hPa Calm   2.6 km/h 75% 0.0 mm 0 W/m2
18:58 12.6 °C 8.3 °C 1013.4 hPa Calm   1.1 km/h 75% 0.0 mm 0 W/m2
19:03 12.5 °C 8.2 °C 1013.1 hPa Calm   1.1 km/h 75% 0.0 mm 0 W/m2
19:08 12.5 °C 8.6 °C 1013.4 hPa SE 1.1 km/h 3.5 km/h 77% 0.0 mm 0 W/m2
19:13 12.6 °C 8.7 °C 1013.1 hPa ESE 1.1 km/h 3.5 km/h 77% 0.0 mm 0 W/m2
19:18 12.7 °C 8.9 °C 1013.1 hPa Calm   6.1 km/h 78% 0.0 mm 0 W/m2
19:23 12.7 °C 8.9 °C 1013.4 hPa Calm   6.1 km/h 78% 0.0 mm 0 W/m2
19:28 12.6 °C 8.9 °C 1013.4 hPa Calm   2.6 km/h 78% 0.0 mm 0 W/m2
19:33 12.6 °C 9.1 °C 1013.4 hPa West 1.1 km/h 2.6 km/h 79% 0.0 mm 0 W/m2
19:38 12.6 °C 9.2 °C 1013.4 hPa Calm   3.5 km/h 80% 0.0 mm 0 W/m2
19:43 12.6 °C 9.2 °C 1013.4 hPa Calm   3.5 km/h 80% 0.0 mm 0 W/m2
19:48 12.6 °C 9.4 °C 1013.4 hPa Calm   2.6 km/h 81% 0.0 mm 0 W/m2
19:53 12.7 °C 9.5 °C 1013.4 hPa NNE 2.6 km/h 3.5 km/h 81% 0.0 mm 0 W/m2
19:58 12.6 °C 9.4 °C 1013.4 hPa North 2.6 km/h 5.0 km/h 81% 0.0 mm 0 W/m2
20:03 12.5 °C 9.3 °C 1013.4 hPa NNE 1.1 km/h 5.0 km/h 81% 0.0 mm 0 W/m2
20:08 12.3 °C 9.1 °C 1013.4 hPa Calm   3.5 km/h 81% 0.0 mm 0 W/m2
20:13 12.2 °C 9.1 °C 1013.4 hPa Calm   2.6 km/h 81% 0.0 mm 0 W/m2
20:18 12.1 °C 8.9 °C 1013.8 hPa Calm   2.6 km/h 81% 0.0 mm 0 W/m2
20:23 12.0 °C 9.0 °C 1013.4 hPa Calm   1.1 km/h 82% 0.0 mm 0 W/m2
20:28 11.8 °C 9.0 °C 1013.4 hPa Calm   1.1 km/h 83% 0.0 mm 0 W/m2
20:33 11.6 °C 9.0 °C 1013.4 hPa Calm   2.6 km/h 84% 0.0 mm 0 W/m2
20:38 11.4 °C 8.9 °C 1013.4 hPa Calm   2.6 km/h 85% 0.0 mm 0 W/m2
20:43 11.2 °C 8.8 °C 1013.4 hPa Calm   2.6 km/h 85% 0.0 mm 0 W/m2
20:48 10.9 °C 8.8 °C 1013.4 hPa Calm   2.6 km/h 87% 0.0 mm 0 W/m2
20:53 10.9 °C 9.0 °C 1013.8 hPa North 1.1 km/h 2.6 km/h 88% 0.0 mm 0 W/m2
20:58 10.9 °C 9.2 °C 1013.8 hPa North 1.1 km/h 5.0 km/h 89% 0.0 mm 0 W/m2
21:03 10.8 °C 9.2 °C 1013.4 hPa Calm   5.0 km/h 90% 0.0 mm 0 W/m2
21:08 10.7 °C 9.3 °C 1013.8 hPa North 1.1 km/h 5.0 km/h 91% 0.0 mm 0 W/m2
21:13 10.7 °C 9.4 °C 1013.8 hPa North 1.1 km/h 5.0 km/h 92% 0.0 mm 0 W/m2
21:18 10.7 °C 9.6 °C 1013.4 hPa North 1.1 km/h 3.5 km/h 93% 0.0 mm 0 W/m2
21:23 10.7 °C 9.6 °C 1013.4 hPa North 1.1 km/h 3.5 km/h 93% 0.0 mm 0 W/m2
21:28 10.7 °C 9.6 °C 1013.8 hPa North 2.6 km/h 5.0 km/h 93% 0.0 mm 0 W/m2
21:33 10.7 °C 9.8 °C 1013.8 hPa NNW 1.1 km/h 6.1 km/h 94% 0.0 mm 0 W/m2
21:38 10.7 °C 9.8 °C 1013.8 hPa Calm   6.1 km/h 94% 0.0 mm 0 W/m2
21:43 10.7 °C 9.8 °C 1013.8 hPa North 1.1 km/h 3.5 km/h 94% 0.0 mm 0 W/m2
21:48 10.7 °C 9.9 °C 1013.8 hPa North 2.6 km/h 5.0 km/h 95% 0.0 mm 0 W/m2
21:53 10.7 °C 9.9 °C 1013.8 hPa North 1.1 km/h 5.0 km/h 95% 0.0 mm 0 W/m2
21:58 10.6 °C 9.8 °C 1013.8 hPa North 1.1 km/h 5.0 km/h 95% 0.0 mm 0 W/m2
22:03 10.6 °C 9.8 °C 1013.8 hPa North 3.5 km/h 6.1 km/h 95% 0.0 mm 0 W/m2
22:08 10.6 °C 10.0 °C 1013.8 hPa North 3.5 km/h 6.1 km/h 96% 0.0 mm 0 W/m2
22:13 10.7 °C 10.1 °C 1013.8 hPa North 2.6 km/h 7.2 km/h 96% 0.0 mm 0 W/m2
22:18 10.7 °C 10.1 °C 1013.8 hPa North 2.6 km/h 7.2 km/h 96% 0.0 mm 0 W/m2
22:23 10.7 °C 10.2 °C 1013.8 hPa NNW 3.5 km/h 6.1 km/h 97% 0.0 mm 0 W/m2
22:28 10.7 °C 10.2 °C 1013.8 hPa North 1.1 km/h 6.1 km/h 97% 0.0 mm 0 W/m2
22:33 10.6 °C 10.2 °C 1013.8 hPa North 3.5 km/h 6.1 km/h 97% 0.0 mm 0 W/m2
22:38 10.6 °C 10.2 °C 1013.8 hPa North 3.5 km/h 6.1 km/h 97% 0.0 mm 0 W/m2
22:43 10.6 °C 10.2 °C 1013.8 hPa NNW 3.5 km/h 6.1 km/h 97% 0.0 mm 0 W/m2
22:48 10.5 °C 10.1 °C 1013.8 hPa North 2.6 km/h 6.1 km/h 97% 0.0 mm 0 W/m2
22:53 10.5 °C 10.1 °C 1013.8 hPa NNW 3.5 km/h 6.1 km/h 97% 0.0 mm 0 W/m2
22:58 10.5 °C 10.1 °C 1013.8 hPa North 5.0 km/h 7.2 km/h 97% 0.0 mm 0 W/m2
23:03 10.4 °C 9.9 °C 1013.8 hPa North 3.5 km/h 8.7 km/h 97% 0.0 mm 0 W/m2
23:08 10.4 °C 10.1 °C 1013.8 hPa NNW 3.5 km/h 8.7 km/h 98% 0.0 mm 0 W/m2
23:13 10.3 °C 10.0 °C 1013.8 hPa NW 3.5 km/h 6.1 km/h 98% 0.0 mm 0 W/m2
23:18 10.2 °C 9.9 °C 1014.1 hPa NNW 2.6 km/h 6.1 km/h 98% 0.0 mm 0 W/m2
23:23 10.1 °C 9.8 °C 1014.1 hPa NNW 2.6 km/h 6.1 km/h 98% 0.0 mm 0 W/m2
23:28 10.1 °C 9.8 °C 1014.1 hPa Calm   5.0 km/h 98% 0.0 mm 0 W/m2
23:33 10.0 °C 9.7 °C 1014.1 hPa Calm   5.0 km/h 98% 0.0 mm 0 W/m2
23:38 9.9 °C 9.8 °C 1014.1 hPa NNW 1.1 km/h 3.5 km/h 99% 0.0 mm 0 W/m2
23:43 9.8 °C 9.7 °C 1014.1 hPa North 1.1 km/h 5.0 km/h 99% 0.0 mm 0 W/m2
23:48 9.7 °C 9.6 °C 1014.1 hPa NNW 3.5 km/h 5.0 km/h 99% 0.0 mm 0 W/m2
23:53 9.6 °C 9.4 °C 1014.1 hPa North 1.1 km/h 5.0 km/h 99% 0.0 mm 0 W/m2
23:58 9.5 °C 9.3 °C 1014.1 hPa North 2.6 km/h 5.0 km/h 99% 0.0 mm 0 W/m2
Northern Hawkes Bay. New Zealand Historic Data
Compliments of Weather Underground - 2 mb